Time;durP1;ratioP1;P1;durP2;ratioP2;P2;SDS_P1;SDS_P2;PMS_P1;PMS_P2;Temp;Humidity;BMP_temperature;BMP_pressure;BME280_temperature;BME280_humidity;BME280_pressure;Samples;Min_cycle;Max_cycle;Signal;HPM_P1;HPM_P2
2022/10/20 00:01:00;;;;;;;9.82;6.53;;;;;;;8.71;74.76;100588.03;5052292;28;20053;-53
2022/10/20 00:03:28;;;;;;;9.38;6.70;;;;;;;8.67;75.01;100580.56;5052099;28;20397;-53
2022/10/20 00:06:06;;;;;;;10.80;6.55;;;;;;;8.73;75.67;100576.59;5052099;28;20481;-52
2022/10/20 00:08:34;;;;;;;9.20;7.05;;;;;;;8.87;75.56;100573.91;5052254;28;20060;-53
2022/10/20 00:11:01;;;;;;;9.13;7.22;;;;;;;8.90;76.50;100581.63;5050359;28;20048;-51
2022/10/20 00:13:28;;;;;;;9.48;7.45;;;;;;;8.91;75.43;100578.56;5049628;28;20057;-51
2022/10/20 00:15:58;;;;;;;9.35;6.82;;;;;;;8.92;75.59;100580.22;5052169;28;20058;-57
2022/10/20 00:18:25;;;;;;;10.63;7.32;;;;;;;8.97;76.49;100578.50;5052035;28;20397;-51
2022/10/20 00:20:52;;;;;;;11.13;7.22;;;;;;;9.07;76.87;100568.06;5051805;28;20481;-54
2022/10/20 00:23:22;;;;;;;10.43;7.85;;;;;;;9.17;77.09;100564.25;5052030;28;20441;-52
2022/10/20 00:25:59;;;;;;;13.70;8.68;;;;;;;9.28;77.25;100560.22;5050855;28;20057;-52
2022/10/20 00:28:31;;;;;;;13.52;8.32;;;;;;;9.45;80.15;100559.63;5051000;28;20405;-54
2022/10/20 00:31:00;;;;;;;13.25;8.98;;;;;;;9.75;81.17;100555.47;5051806;28;20053;-52
2022/10/20 00:33:28;;;;;;;11.13;8.48;;;;;;;9.99;80.33;100548.88;5051728;28;20048;-51
2022/10/20 00:35:55;;;;;;;11.48;9.02;;;;;;;10.14;79.88;100545.81;5060661;28;20485;-53
2022/10/20 00:38:24;;;;;;;10.65;7.95;;;;;;;10.24;79.14;100546.72;5071869;28;20064;-54
2022/10/20 00:40:51;;;;;;;10.80;7.88;;;;;;;10.29;77.83;100547.47;5053776;28;20052;-51
2022/10/20 00:43:22;;;;;;;9.60;6.82;;;;;;;10.27;77.02;100544.16;5051658;28;20490;-54
2022/10/20 00:45:54;;;;;;;10.90;7.45;;;;;;;10.28;77.59;100542.19;5051646;28;20061;-54
2022/10/20 00:48:25;;;;;;;10.35;7.38;;;;;;;10.29;76.89;100535.47;5051489;28;20057;-53
2022/10/20 00:50:55;;;;;;;10.95;7.30;;;;;;;10.27;75.94;100526.63;5051632;28;20056;-55
2022/10/20 00:53:26;;;;;;;10.63;7.30;;;;;;;10.22;76.97;100533.09;5047815;28;20050;-52
2022/10/20 00:55:55;;;;;;;11.10;8.43;;;;;;;10.29;77.85;100521.53;5034136;28;20060;-54
2022/10/20 00:58:23;;;;;;;11.45;7.30;;;;;;;10.39;78.58;100515.78;5035583;28;20054;-53
2022/10/20 01:06:18;;;;;;;12.35;8.48;;;;;;;10.67;77.83;100494.28;5045620;28;20061;-81
2022/10/20 01:08:47;;;;;;;11.32;8.10;;;;;;;10.73;77.27;100484.66;5035928;28;20072;-81
2022/10/20 01:11:26;;;;;;;9.73;8.27;;;;;;;10.80;77.31;100481.44;5036199;28;20059;-81
2022/10/20 01:14:09;;;;;;;10.20;7.60;;;;;;;10.84;76.81;100476.88;5040358;28;20496;-82
2022/10/20 01:16:45;;;;;;;9.70;7.68;;;;;;;10.86;76.41;100477.38;5055620;28;20515;-81
2022/10/20 01:19:35;;;;;;;10.40;8.27;;;;;;;10.93;77.06;100458.25;5055637;28;20519;-82
2022/10/20 01:22:17;;;;;;;10.63;8.00;;;;;;;10.92;76.93;100472.53;5055712;28;20061;-81
2022/10/20 01:25:16;;;;;;;10.88;7.95;;;;;;;10.96;76.52;100454.84;5055528;28;20262;-81
2022/10/20 01:27:46;;;;;;;9.27;7.32;;;;;;;10.96;76.35;100476.28;5055649;28;20547;-81
2022/10/20 01:30:17;;;;;;;9.80;7.80;;;;;;;10.95;76.21;100474.66;5055543;28;20057;-82
2022/10/20 01:32:55;;;;;;;9.98;8.25;;;;;;;11.01;77.25;100478.16;5055889;28;20068;-81
2022/10/20 01:35:31;;;;;;;10.95;8.20;;;;;;;11.08;76.89;100467.38;5057427;28;20071;-83
2022/10/20 01:38:09;;;;;;;11.45;8.30;;;;;;;11.08;76.73;100459.00;5055143;28;20392;-82
2022/10/20 01:40:43;;;;;;;9.98;7.97;;;;;;;11.15;75.84;100445.47;5055605;28;20061;-81
2022/10/20 01:43:15;;;;;;;10.45;8.02;;;;;;;11.16;76.06;100445.13;5054982;28;20053;-82
2022/10/20 01:45:46;;;;;;;9.48;7.47;;;;;;;11.27;76.70;100431.72;5055387;28;20056;-82
2022/10/20 01:48:16;;;;;;;11.32;7.35;;;;;;;11.34;76.21;100415.38;5054956;28;20053;-82
2022/10/20 01:50:46;;;;;;;9.30;7.43;;;;;;;11.41;76.13;100412.13;5054946;28;20052;-81
2022/10/20 01:53:13;;;;;;;;;;;;;;;11.47;76.01;100416.41;5055449;28;20412;-81
2022/10/20 01:55:41;;;;;;;10.82;8.55;;;;;;;11.48;75.45;100414.44;5038896;28;19928;-81
2022/10/20 01:58:52;;;;;;;9.20;7.22;;;;;;;11.54;76.00;100418.72;5046544;28;20045;-82
2022/10/20 02:01:28;;;;;;;10.65;7.97;;;;;;;11.54;75.34;100418.72;5047986;28;20057;-82
2022/10/20 02:04:00;;;;;;;9.77;7.38;;;;;;;11.57;75.44;100418.09;5053189;28;20061;-82
2022/10/20 02:06:35;;;;;;;8.57;7.28;;;;;;;11.61;74.77;100402.34;5063740;28;20060;-81
2022/10/20 02:09:06;;;;;;;10.60;8.07;;;;;;;11.59;74.76;100382.34;5059872;28;20056;-82
2022/10/20 02:11:42;;;;;;;9.70;8.00;;;;;;;11.57;75.01;100390.19;5055111;28;20057;-82
2022/10/20 02:14:14;;;;;;;11.20;8.80;;;;;;;11.60;74.93;100383.97;5035037;28;20125;-82
2022/10/20 02:16:46;;;;;;;12.10;8.57;;;;;;;11.59;74.85;100379.53;5034711;28;20512;-81
2022/10/20 02:19:16;;;;;;;12.02;8.77;;;;;;;11.58;74.55;100387.06;5034897;28;20060;-82
2022/10/20 02:21:44;;;;;;;12.48;8.90;;;;;;;11.59;74.05;100382.34;5034696;28;20053;-81
2022/10/20 02:24:14;;;;;;;10.48;7.88;;;;;;;11.58;74.41;100380.69;5034670;28;20076;-81
2022/10/20 02:26:43;;;;;;;9.20;7.97;;;;;;;11.55;74.82;100381.34;5034448;28;20080;-81
2022/10/20 02:29:16;;;;;;;10.80;8.57;;;;;;;11.49;74.81;100363.09;5034814;28;20179;-81
2022/10/20 02:31:45;;;;;;;12.00;8.70;;;;;;;11.50;74.97;100367.53;5035394;28;20062;-81
2022/10/20 02:34:15;;;;;;;11.27;7.70;;;;;;;11.52;75.30;100354.88;5054158;28;20477;-81
2022/10/20 02:36:43;;;;;;;10.40;7.55;;;;;;;11.55;74.68;100357.03;5054746;28;20068;-81
2022/10/20 02:39:11;;;;;;;8.95;7.80;;;;;;;11.53;74.94;100352.94;5054654;28;20063;-81
2022/10/20 02:41:38;;;;;;;10.77;8.80;;;;;;;11.56;74.98;100349.50;5054368;28;20057;-82
2022/10/20 02:44:06;;;;;;;7.97;7.18;;;;;;;11.52;75.19;100348.50;5053659;28;20071;-82
2022/10/20 02:46:34;;;;;;;10.13;7.80;;;;;;;11.53;74.70;100345.38;5053583;28;20053;-80
2022/10/20 02:49:02;;;;;;;11.20;8.60;;;;;;;11.57;74.78;100348.38;5053630;28;20057;-81
2022/10/20 02:51:29;;;;;;;9.05;7.60;;;;;;;11.55;75.26;100347.88;5053730;28;20386;-80
2022/10/20 02:53:56;;;;;;;9.88;6.20;;;;;;;11.64;75.44;100339.50;5053929;28;20071;-81
2022/10/20 02:56:23;;;;;;;9.43;6.70;;;;;;;11.73;75.34;100326.38;5053667;28;20412;-81
2022/10/20 02:58:51;;;;;;;11.43;6.68;;;;;;;11.82;75.15;100334.75;5053463;28;20123;-81
2022/10/20 03:01:18;;;;;;;8.02;6.20;;;;;;;11.90;74.49;100328.41;5053259;28;20053;-81
2022/10/20 03:03:47;;;;;;;10.43;6.90;;;;;;;11.95;74.69;100329.06;5053633;28;20052;-81
2022/10/20 03:06:15;;;;;;;8.25;6.28;;;;;;;12.02;74.25;100323.00;5053313;28;20420;-81
2022/10/20 03:08:43;;;;;;;7.35;5.55;;;;;;;12.07;74.35;100322.00;5049180;28;20057;-81
2022/10/20 03:11:11;;;;;;;7.57;6.15;;;;;;;12.13;73.55;100323.50;5033388;28;20435;-81
2022/10/20 03:13:38;;;;;;;9.73;6.20;;;;;;;12.19;73.75;100317.41;5038746;28;20057;-81
2022/10/20 03:19:08;;;;;;;7.60;5.43;;;;;;;12.27;73.23;100318.56;5030214;28;20060;-81
2022/10/20 03:21:53;;;;;;;7.60;5.50;;;;;;;12.36;72.97;100316.56;5060003;28;20056;-80
2022/10/20 03:24:31;;;;;;;6.25;5.32;;;;;;;12.37;72.65;100311.84;5047273;28;20065;-81
2022/10/20 03:30:07;;;;;;;7.25;5.55;;;;;;;12.41;72.81;100307.22;5036023;28;20064;-81
2022/10/20 03:32:35;;;;;;;6.97;5.47;;;;;;;12.44;72.71;100308.53;5033234;28;20053;-82
2022/10/20 03:35:04;;;;;;;7.15;4.95;;;;;;;12.49;71.73;100302.75;5033539;28;20068;-81
2022/10/20 03:37:31;;;;;;;6.75;5.75;;;;;;;12.61;71.31;100304.88;5033454;28;20406;-81
2022/10/20 03:39:58;;;;;;;5.35;4.30;;;;;;;12.64;71.67;100290.22;5032955;28;20056;-81
2022/10/20 03:42:25;;;;;;;6.55;4.85;;;;;;;12.69;70.39;100290.06;5032773;28;20053;-82
2022/10/20 03:44:53;;;;;;;7.55;4.65;;;;;;;12.73;71.11;100288.25;5049018;28;20056;-82
2022/10/20 03:47:20;;;;;;;6.40;4.45;;;;;;;12.72;70.30;100289.38;5052562;28;20057;-82
2022/10/20 03:49:47;;;;;;;4.90;4.22;;;;;;;12.76;69.87;100290.34;5053105;28;20409;-82
2022/10/20 03:52:16;;;;;;;7.22;4.90;;;;;;;12.81;70.69;100287.41;5052566;28;20052;-81
2022/10/20 03:54:43;;;;;;;7.47;4.78;;;;;;;12.84;69.65;100269.94;5064359;28;20059;-81
2022/10/20 03:57:10;;;;;;;6.45;4.88;;;;;;;12.88;70.04;100275.69;5073362;28;20518;-82
2022/10/20 03:59:37;;;;;;;5.63;4.32;;;;;;;12.83;69.00;100265.53;5072545;28;20067;-81
2022/10/20 04:02:05;;;;;;;5.78;4.10;;;;;;;12.90;68.83;100268.59;5066991;28;20053;-82
2022/10/20 04:04:32;;;;;;;4.97;4.18;;;;;;;12.98;68.21;100262.16;5052784;28;20060;-82
2022/10/20 04:06:59;;;;;;;7.40;4.40;;;;;;;13.04;68.32;100248.81;5052648;28;20142;-80
2022/10/20 04:09:28;;;;;;;5.97;4.53;;;;;;;13.10;67.63;100255.03;5052674;28;20057;-81
2022/10/20 04:11:55;;;;;;;6.00;3.83;;;;;;;13.11;66.96;100248.28;5051525;28;20053;-80
2022/10/20 04:14:22;;;;;;;5.15;3.72;;;;;;;13.17;66.94;100249.75;5053232;28;20067;-80
2022/10/20 04:16:49;;;;;;;5.10;4.00;;;;;;;13.16;66.85;100242.50;5052302;28;20068;-79
2022/10/20 04:19:17;;;;;;;5.13;3.63;;;;;;;13.25;66.91;100248.88;5052421;28;20052;-81
2022/10/20 04:21:44;;;;;;;4.53;3.65;;;;;;;13.26;65.44;100239.31;5052037;28;20520;-79
2022/10/20 04:24:11;;;;;;;4.72;3.53;;;;;;;13.29;65.59;100229.44;5051652;28;20072;-80
2022/10/20 04:26:40;;;;;;;5.32;3.90;;;;;;;13.38;65.73;100233.84;5052612;28;20053;-81
2022/10/20 04:29:07;;;;;;;5.60;3.70;;;;;;;13.40;65.16;100236.31;5052201;28;20053;-81
2022/10/20 04:31:35;;;;;;;4.47;3.40;;;;;;;13.37;65.14;100236.97;5052231;28;20080;-80
2022/10/20 04:34:02;;;;;;;4.18;3.47;;;;;;;13.41;64.76;100223.94;5051546;28;20049;-80
2022/10/20 04:36:29;;;;;;;7.55;4.15;;;;;;;13.38;63.85;100217.06;5052633;28;20477;-81
2022/10/20 04:38:57;;;;;;;8.50;3.45;;;;;;;13.46;64.23;100220.13;5059878;28;20056;-81
2022/10/20 04:41:24;;;;;;;4.35;2.95;;;;;;;13.48;63.54;100224.25;5052578;28;20061;-81
2022/10/20 04:43:53;;;;;;;5.65;3.92;;;;;;;13.52;63.12;100218.75;5051895;28;20064;-81
2022/10/20 04:46:20;;;;;;;6.93;3.45;;;;;;;13.60;64.14;100213.09;5050173;28;20064;-81
2022/10/20 04:48:47;;;;;;;6.13;3.60;;;;;;;13.61;63.67;100211.13;5052277;28;20057;-81
2022/10/20 04:51:16;;;;;;;6.75;3.75;;;;;;;13.58;63.93;100200.59;5051994;28;20060;-82
2022/10/20 04:53:43;;;;;;;8.80;3.97;;;;;;;13.55;63.56;100204.09;5052408;28;20053;-82
2022/10/20 04:56:13;;;;;;;4.13;3.15;;;;;;;13.52;63.49;100196.38;5051880;28;20152;-82
2022/10/20 04:58:41;;;;;;;6.35;3.65;;;;;;;13.45;63.47;100182.13;5050816;28;20075;-83
2022/10/20 05:01:10;;;;;;;5.28;3.45;;;;;;;13.52;62.79;100185.19;5050867;28;20057;-81
2022/10/20 05:03:37;;;;;;;5.10;3.50;;;;;;;13.59;63.49;100171.47;5043607;28;20056;-81
2022/10/20 05:06:09;;;;;;;5.25;3.42;;;;;;;13.65;62.87;100163.66;5051056;28;20052;-81
2022/10/20 05:08:36;;;;;;;6.65;3.45;;;;;;;13.58;63.13;100175.41;5049532;28;20496;-82
2022/10/20 05:11:04;;;;;;;4.43;3.25;;;;;;;13.65;62.32;100164.50;5049552;28;20432;-81
2022/10/20 05:13:31;;;;;;;5.40;3.20;;;;;;;13.67;62.94;100161.34;5041788;28;20056;-82
2022/10/20 05:15:58;;;;;;;4.35;3.55;;;;;;;13.66;62.54;100154.94;5050395;28;20057;-81
2022/10/20 05:18:28;;;;;;;6.13;3.45;;;;;;;13.67;62.58;100147.34;5048064;28;20057;-82
2022/10/20 05:20:55;;;;;;;6.55;3.47;;;;;;;13.80;62.26;100141.47;5050842;28;20065;-82
2022/10/20 05:23:23;;;;;;;5.85;3.65;;;;;;;13.73;63.28;100138.44;5050484;28;20053;-83
2022/10/20 05:25:50;;;;;;;5.35;3.47;;;;;;;13.81;62.45;100129.09;5048056;28;20049;-82
2022/10/20 05:28:17;;;;;;;6.18;3.88;;;;;;;13.91;63.06;100138.25;5046497;28;20060;-82
2022/10/20 05:30:44;;;;;;;5.57;3.88;;;;;;;13.96;62.51;100122.06;5049600;28;20057;-82
2022/10/20 05:33:12;;;;;;;5.38;3.75;;;;;;;14.01;63.06;100121.00;5050348;28;20435;-82
2022/10/20 05:35:41;;;;;;;5.47;4.03;;;;;;;13.98;63.06;100110.47;5031651;28;20077;-83
2022/10/20 05:38:08;;;;;;;5.50;3.72;;;;;;;14.02;61.94;100105.81;5061126;28;20057;-85
2022/10/20 05:40:35;;;;;;;5.20;3.90;;;;;;;14.00;62.33;100102.56;5031677;28;20088;-85
2022/10/20 05:43:02;;;;;;;6.53;3.80;;;;;;;14.00;62.49;100105.34;5042452;28;20057;-84
2022/10/20 05:45:30;;;;;;;5.55;3.78;;;;;;;13.99;62.93;100112.13;5055273;28;20057;-85
2022/10/20 05:47:57;;;;;;;6.03;4.10;;;;;;;14.03;62.68;100101.88;5054445;28;20052;-83
2022/10/20 05:50:24;;;;;;;5.60;4.07;;;;;;;14.07;62.61;100108.44;5055114;28;20064;-83
2022/10/20 05:52:54;;;;;;;4.88;3.97;;;;;;;14.13;62.00;100112.63;5054335;28;20486;-82
2022/10/20 05:55:21;;;;;;;4.93;3.88;;;;;;;14.15;63.37;100104.72;5054422;28;20056;-81
2022/10/20 05:57:49;;;;;;;7.65;4.55;;;;;;;14.20;62.69;100101.66;5054382;28;20061;-82
2022/10/20 06:00:18;;;;;;;6.40;4.05;;;;;;;14.25;63.15;100097.00;5054775;28;20063;-81
2022/10/20 06:02:45;;;;;;;5.28;4.20;;;;;;;14.26;62.24;100098.63;5054514;28;20068;-82
2022/10/20 06:05:12;;;;;;;7.18;4.45;;;;;;;14.36;62.36;100103.78;5054568;28;20053;-80
2022/10/20 06:07:40;;;;;;;6.70;4.20;;;;;;;14.38;62.12;100099.47;5057030;28;20432;-81
2022/10/20 06:10:09;;;;;;;5.88;4.38;;;;;;;14.41;62.34;100090.38;5052892;28;20057;-81
2022/10/20 06:12:36;;;;;;;5.78;3.90;;;;;;;14.45;61.88;100096.09;5053251;28;20378;-81
2022/10/20 06:15:04;;;;;;;4.68;4.00;;;;;;;14.49;62.97;100090.59;5053209;28;20056;-80
2022/10/20 06:17:31;;;;;;;7.93;4.13;;;;;;;14.46;63.05;100091.28;5049956;28;20443;-80
2022/10/20 06:19:58;;;;;;;8.93;4.50;;;;;;;14.36;63.32;100086.97;5053619;28;20060;-81
2022/10/20 06:22:26;;;;;;;25.65;7.65;;;;;;;14.47;63.31;100096.56;5053941;28;20132;-80
2022/10/20 06:24:53;;;;;;;34.42;8.05;;;;;;;14.54;62.27;100110.78;5045493;28;20052;-81
2022/10/20 06:27:21;;;;;;;6.90;4.40;;;;;;;14.63;62.42;100107.09;5046494;28;20064;-80
2022/10/20 06:29:49;;;;;;;7.43;4.90;;;;;;;14.58;63.28;100114.56;5053164;28;20061;-80
2022/10/20 06:32:17;;;;;;;5.97;4.25;;;;;;;14.66;61.77;100098.81;5048091;28;20064;-81
2022/10/20 06:35:07;;;;;;;6.25;4.13;;;;;;;14.71;61.71;100094.94;5042097;28;20067;-80
2022/10/20 06:37:34;;;;;;;5.90;4.68;;;;;;;14.70;62.96;100102.53;5053019;28;20512;-81
2022/10/20 06:40:01;;;;;;;7.53;4.45;;;;;;;14.78;62.03;100106.38;5053739;28;20057;-80
2022/10/20 06:42:30;;;;;;;6.38;4.65;;;;;;;14.84;61.99;100107.78;5054147;28;20064;-81
2022/10/20 06:44:58;;;;;;;6.90;4.40;;;;;;;14.86;62.55;100093.41;5058105;28;20063;-81
2022/10/20 06:47:25;;;;;;;5.88;4.25;;;;;;;14.94;62.45;100104.47;5073748;28;20060;-81
2022/10/20 06:49:53;;;;;;;6.03;4.05;;;;;;;14.98;61.74;100105.41;5073963;28;20056;-79
2022/10/20 06:52:20;;;;;;;5.07;4.03;;;;;;;15.04;61.76;100108.00;5073637;28;20484;-81
2022/10/20 06:54:47;;;;;;;5.32;4.47;;;;;;;15.15;61.85;100111.94;5069162;28;20076;-80
2022/10/20 06:57:14;;;;;;;5.45;4.10;;;;;;;15.25;61.69;100111.44;5053552;28;20077;-80
2022/10/20 06:59:43;;;;;;;6.15;4.63;;;;;;;15.34;61.92;100105.69;5053619;28;20131;-80
2022/10/20 07:02:11;;;;;;;5.72;4.20;;;;;;;15.32;62.00;100096.81;5034326;28;20374;-80
2022/10/20 07:04:38;;;;;;;5.00;4.50;;;;;;;15.40;61.28;100091.03;5053482;28;20057;-80
2022/10/20 07:07:05;;;;;;;5.00;4.28;;;;;;;15.57;60.69;100095.53;5065877;28;20056;-80
2022/10/20 07:09:33;;;;;;;7.18;4.03;;;;;;;15.75;60.31;100093.28;5073442;28;20057;-80
2022/10/20 07:12:00;;;;;;;9.05;4.10;;;;;;;15.88;60.20;100090.41;5042557;28;20064;-79
2022/10/20 07:14:27;;;;;;;6.97;4.13;;;;;;;16.02;59.41;100099.19;5033635;28;20053;-80
2022/10/20 07:16:56;;;;;;;6.32;3.83;;;;;;;15.96;60.39;100097.84;5033699;28;20065;-80
2022/10/20 07:19:23;;;;;;;6.18;4.22;;;;;;;16.09;59.86;100101.41;5033405;28;20057;-80
2022/10/20 07:21:50;;;;;;;7.15;4.32;;;;;;;16.27;59.12;100096.22;5044103;28;20416;-79
2022/10/20 07:24:17;;;;;;;5.90;4.40;;;;;;;16.32;58.68;100113.63;5052445;28;20053;-80
2022/10/20 07:26:45;;;;;;;4.93;3.28;;;;;;;16.36;58.79;100113.75;5053000;28;20516;-80
2022/10/20 07:29:13;;;;;;;4.75;3.70;;;;;;;16.45;58.49;100100.31;5053237;28;20057;-80
2022/10/20 07:31:42;;;;;;;5.82;3.80;;;;;;;16.56;58.01;100117.44;5051529;28;20071;-80
2022/10/20 07:34:13;;;;;;;5.32;4.00;;;;;;;16.48;58.07;100119.25;5052651;28;20057;-79
2022/10/20 07:36:41;;;;;;;6.50;3.90;;;;;;;16.41;58.50;100102.22;5052345;28;20081;-80
2022/10/20 07:39:10;;;;;;;4.50;3.50;;;;;;;16.64;58.13;100096.75;5053218;28;20053;-80
2022/10/20 07:41:38;;;;;;;5.63;3.80;;;;;;;16.71;58.05;100093.28;5052039;28;20405;-80
2022/10/20 07:44:06;;;;;;;7.97;4.20;;;;;;;16.69;58.17;100087.22;5052916;28;20060;-80
2022/10/20 07:46:33;;;;;;;7.28;4.20;;;;;;;16.73;57.82;100088.13;5053197;28;20057;-80
2022/10/20 07:49:01;;;;;;;5.28;3.75;;;;;;;16.96;57.65;100088.28;5052450;28;20052;-80
2022/10/20 07:51:31;;;;;;;6.03;3.92;;;;;;;17.13;57.09;100096.28;5051207;28;20057;-80
2022/10/20 07:54:01;;;;;;;4.93;3.88;;;;;;;17.19;56.42;100111.72;5052551;28;20064;-81
2022/10/20 07:56:30;;;;;;;5.07;3.97;;;;;;;17.54;55.69;100102.41;5052380;28;20063;-80
2022/10/20 07:58:57;;;;;;;7.70;3.95;;;;;;;18.21;54.63;100092.84;5052128;28;20061;-80
2022/10/20 08:01:25;;;;;;;5.50;4.00;;;;;;;19.06;52.91;100089.78;5051929;28;20554;-80
2022/10/20 08:03:52;;;;;;;6.32;3.55;;;;;;;19.96;50.91;100074.75;5051997;28;20408;-80
2022/10/20 08:06:20;;;;;;;4.63;3.30;;;;;;;20.96;48.44;100091.78;5058591;28;20052;-80
2022/10/20 08:08:48;;;;;;;5.35;3.83;;;;;;;21.62;46.19;100079.59;5072470;28;20057;-80
2022/10/20 08:11:16;;;;;;;5.57;3.65;;;;;;;22.22;44.50;100100.81;5053561;28;20405;-80
2022/10/20 08:13:43;;;;;;;4.78;3.78;;;;;;;22.78;43.08;100058.66;5051666;28;20413;-80
2022/10/20 08:16:13;;;;;;;4.75;3.40;;;;;;;23.60;41.16;100040.53;5052557;28;20067;-80
2022/10/20 08:18:42;;;;;;;6.50;4.05;;;;;;;23.70;40.45;100043.31;5051620;28;20068;-80
2022/10/20 08:21:12;;;;;;;3.58;2.90;;;;;;;24.40;39.25;100047.34;5049957;28;20393;-80
2022/10/20 08:23:40;;;;;;;7.20;3.35;;;;;;;25.03;38.19;100038.59;5031826;28;20056;-80
2022/10/20 08:26:09;;;;;;;7.00;3.65;;;;;;;25.47;36.74;100025.47;5031716;28;20494;-81
2022/10/20 08:28:37;;;;;;;5.38;2.92;;;;;;;25.23;37.85;100028.22;5032226;28;20068;-81
2022/10/20 08:31:05;;;;;;;5.15;3.45;;;;;;;24.07;39.10;100029.72;5043939;28;20048;-80
2022/10/20 08:33:33;;;;;;;5.78;3.25;;;;;;;23.90;39.44;100011.56;5052126;28;20056;-80
2022/10/20 08:36:05;;;;;;;6.13;3.72;;;;;;;23.92;39.10;100014.81;5052041;28;20060;-80
2022/10/20 08:38:32;;;;;;;5.75;3.22;;;;;;;23.58;39.89;100031.63;5052038;28;20057;-81
2022/10/20 08:41:01;;;;;;;6.32;3.35;;;;;;;23.69;39.88;100038.88;5051823;28;20056;-80
2022/10/20 08:43:32;;;;;;;9.30;3.30;;;;;;;23.41;41.18;100024.78;5051560;28;20053;-80
2022/10/20 08:45:59;;;;;;;6.22;3.63;;;;;;;23.29;40.83;100037.47;5051903;28;20539;-80
2022/10/20 08:48:29;;;;;;;4.72;3.33;;;;;;;22.97;41.14;100038.31;5052289;28;20057;-80
2022/10/20 08:50:57;;;;;;;6.22;3.50;;;;;;;22.79;42.05;100043.25;5051719;28;20064;-80
2022/10/20 08:53:26;;;;;;;4.85;3.80;;;;;;;22.67;42.45;100025.41;5052236;28;20501;-80
2022/10/20 08:55:55;;;;;;;4.30;3.78;;;;;;;22.63;43.21;100026.63;5055142;28;20099;-81
2022/10/20 08:58:24;;;;;;;5.32;3.92;;;;;;;22.60;42.06;100031.09;5051860;28;20061;-81
2022/10/20 09:00:57;;;;;;;6.75;3.45;;;;;;;22.59;42.17;100026.63;5051686;28;20076;-81
2022/10/20 09:03:28;;;;;;;5.00;3.28;;;;;;;22.55;42.99;100027.88;5051947;28;20053;-80
2022/10/20 09:06:00;;;;;;;6.75;3.55;;;;;;;22.62;43.56;100025.84;5052581;28;20057;-81
2022/10/20 09:08:30;;;;;;;5.75;3.53;;;;;;;22.73;42.99;100033.53;5071538;28;20056;-81
2022/10/20 09:10:58;;;;;;;9.25;3.72;;;;;;;23.07;42.34;100031.81;5071513;28;20056;-81
2022/10/20 09:13:27;;;;;;;7.97;3.47;;;;;;;23.40;42.66;100032.53;5071493;28;20056;-80
2022/10/20 09:16:02;;;;;;;3.67;3.05;;;;;;;23.50;42.17;100022.34;5054228;28;20064;-81
2022/10/20 09:18:30;;;;;;;3.72;2.85;;;;;;;23.59;41.80;100021.88;5055106;28;20052;-81
2022/10/20 09:21:00;;;;;;;5.75;3.67;;;;;;;23.48;42.54;100011.38;5055362;28;20057;-81
2022/10/20 09:23:35;;;;;;;8.40;3.40;;;;;;;23.31;41.94;100009.44;5055408;28;20057;-81
2022/10/20 09:26:02;;;;;;;6.55;3.63;;;;;;;23.09;42.28;100017.22;5054492;28;20061;-81
2022/10/20 09:28:29;;;;;;;6.80;3.65;;;;;;;23.03;42.12;100011.16;5055180;28;20053;-82
2022/10/20 09:30:58;;;;;;;4.50;3.13;;;;;;;22.84;43.64;100017.25;5055559;28;20056;-81
2022/10/20 09:33:29;;;;;;;10.60;6.90;;;;;;;22.72;43.59;100029.88;5055545;28;20060;-81
2022/10/20 09:36:04;;;;;;;8.27;4.57;;;;;;;22.60;43.56;100025.44;5054372;28;20417;-81
2022/10/20 09:38:34;;;;;;;8.68;7.53;;;;;;;22.43;44.01;100026.28;5050932;28;20069;-81
2022/10/20 09:41:13;;;;;;;9.55;6.70;;;;;;;22.23;44.84;100029.50;5035262;28;20061;-82
2022/10/20 09:43:47;;;;;;;7.47;3.83;;;;;;;22.00;45.05;100031.88;5035275;28;20132;-81
2022/10/20 09:46:20;;;;;;;6.65;3.80;;;;;;;21.86;44.80;100029.84;5045260;28;20469;-81
2022/10/20 09:48:50;;;;;;;5.38;4.07;;;;;;;21.45;45.81;100042.28;5054408;28;20053;-80
2022/10/20 09:51:20;;;;;;;5.53;3.65;;;;;;;21.17;46.11;100036.50;5055163;28;20068;-80
2022/10/20 09:53:54;;;;;;;6.68;3.83;;;;;;;20.85;46.87;100034.28;5055092;28;20053;-81
2022/10/20 09:56:30;;;;;;;4.97;3.95;;;;;;;20.72;47.04;100038.66;5054157;28;20071;-80
2022/10/20 09:59:00;;;;;;;7.32;3.80;;;;;;;20.65;47.65;100034.56;5054736;28;20420;-81
2022/10/20 10:01:29;;;;;;;5.45;3.58;;;;;;;20.66;47.49;100032.53;5054764;28;20068;-80
2022/10/20 10:04:00;;;;;;;5.85;3.70;;;;;;;20.65;47.66;100025.28;5054679;28;20505;-81
2022/10/20 10:06:31;;;;;;;6.72;3.65;;;;;;;20.59;48.19;100029.66;5053752;28;20060;-81
2022/10/20 10:09:00;;;;;;;7.88;3.50;;;;;;;20.46;48.96;100026.31;5054574;28;20061;-81
2022/10/20 10:11:34;;;;;;;14.30;4.00;;;;;;;20.38;50.33;100021.81;5054864;28;20064;-81
2022/10/20 10:14:02;;;;;;;5.65;3.95;;;;;;;20.35;49.61;100006.44;5054339;28;20064;-80
2022/10/20 10:16:40;;;;;;;8.10;4.35;;;;;;;20.13;50.34;100008.28;5053501;28;20496;-81
2022/10/20 10:19:08;;;;;;;8.00;3.90;;;;;;;19.96;50.25;100018.22;5053714;28;20053;-80
2022/10/20 10:21:45;;;;;;;4.90;3.70;;;;;;;19.86;50.72;100027.41;5054056;28;20503;-81
2022/10/20 10:24:32;;;;;;;5.57;3.58;;;;;;;19.66;51.15;100021.94;5054245;28;20362;-80
2022/10/20 10:27:01;;;;;;;6.40;3.72;;;;;;;19.59;51.06;100001.25;5052388;28;20064;-81
2022/10/20 10:29:31;;;;;;;7.38;3.90;;;;;;;19.46;51.08;100001.56;5054575;28;20056;-81
2022/10/20 10:32:01;;;;;;;6.80;3.80;;;;;;;19.29;51.94;99990.03;5054565;28;20500;-81
2022/10/20 10:35:02;;;;;;;8.27;3.63;;;;;;;19.11;52.11;99999.13;5054314;28;20053;-80
2022/10/20 10:37:31;;;;;;;6.97;4.40;;;;;;;19.08;52.21;100010.34;5048347;28;20065;-81
2022/10/20 10:39:58;;;;;;;6.35;4.10;;;;;;;19.14;53.05;100008.81;5054298;28;20068;-80
2022/10/20 10:42:50;;;;;;;7.18;4.20;;;;;;;19.08;53.24;100011.16;5054432;28;20057;-81
2022/10/20 10:45:23;;;;;;;7.30;4.40;;;;;;;19.21;52.82;99991.97;5040774;28;20052;-81
2022/10/20 10:48:09;;;;;;;6.70;4.47;;;;;;;18.97;52.57;100004.56;5033731;28;20478;-80
2022/10/20 10:50:44;;;;;;;6.32;4.32;;;;;;;18.84;53.65;100009.66;5033553;28;20061;-80
2022/10/20 10:53:20;;;;;;;12.32;5.05;;;;;;;18.71;53.69;100011.03;5034054;28;20070;-81
2022/10/20 10:55:53;;;;;;;6.65;4.82;;;;;;;18.68;53.96;100006.97;5053298;28;20073;-81
2022/10/20 10:58:44;;;;;;;7.05;5.10;;;;;;;18.76;53.78;100005.88;5053940;28;20060;-81
2022/10/20 11:01:37;;;;;;;7.38;4.80;;;;;;;18.65;54.32;100002.09;5050224;28;20072;-80
2022/10/20 11:04:29;;;;;;;8.95;4.55;;;;;;;18.57;54.27;100012.44;5052722;28;20056;-80
2022/10/20 11:07:04;;;;;;;6.13;4.78;;;;;;;18.81;53.98;100018.88;5054069;28;20053;-81
2022/10/20 11:09:40;;;;;;;7.13;5.22;;;;;;;18.64;53.66;100020.19;5053555;28;20087;-81
2022/10/20 11:12:36;;;;;;;8.05;4.95;;;;;;;18.61;54.22;100009.69;5052792;28;20056;-81
2022/10/20 11:15:23;;;;;;;9.38;5.85;;;;;;;18.50;54.72;100003.91;5033594;28;20053;-80
2022/10/20 11:18:00;;;;;;;7.30;5.85;;;;;;;18.39;54.52;100002.91;5033617;28;20058;-81
2022/10/20 11:20:38;;;;;;;10.02;5.15;;;;;;;18.51;54.80;99985.78;5033593;28;20424;-82
2022/10/20 11:23:33;;;;;;;9.48;5.93;;;;;;;18.31;56.26;99995.53;5033807;28;20060;-81
2022/10/20 11:26:10;;;;;;;9.93;5.75;;;;;;;18.34;56.30;100000.41;5033481;28;20060;-81
2022/10/20 11:28:43;;;;;;;7.00;5.03;;;;;;;18.39;56.21;99989.59;5033848;28;20065;-81
2022/10/20 11:31:21;;;;;;;9.88;5.55;;;;;;;18.63;55.11;99979.09;5033197;28;20057;-81
2022/10/20 11:34:03;;;;;;;5.68;5.03;;;;;;;18.44;55.54;99968.75;5032789;28;20064;-82
2022/10/20 11:36:39;;;;;;;8.18;5.22;;;;;;;18.50;56.03;99964.41;5052881;28;20466;-81
2022/10/20 11:39:15;;;;;;;9.02;5.60;;;;;;;18.44;55.30;99972.38;5051332;28;20073;-81
2022/10/20 11:41:48;;;;;;;6.90;5.13;;;;;;;18.33;56.04;99956.47;5052378;28;20064;-81
2022/10/20 11:44:21;;;;;;;8.70;6.00;;;;;;;18.11;56.85;99963.81;5052530;28;20060;-81
2022/10/20 11:46:52;;;;;;;6.80;5.10;;;;;;;18.17;56.91;99968.75;5052923;28;20475;-81
2022/10/20 11:49:20;;;;;;;8.65;6.28;;;;;;;17.89;57.60;99960.66;5052708;28;20363;-81
2022/10/20 11:52:06;;;;;;;8.90;5.78;;;;;;;18.01;57.83;99966.06;5052741;28;20057;-81